logo
Rechercher aéroport 
image banner adimage banner adimage banner ad
image banner ad

LZMASN - Masnikovo

Situé à Dunajská Streda, Slovakia

ICAO - , IATA -

Données fournies par Airmate  

Information générale

Coordonnées: N48°2'44" E17°28'37"
Élévation : 394 feet MSL.
 
Voir autres Aéroports à Bratislava

Données opérationnelles

Special qualification required
Heure actuelle UTC:
Heure actuelle locale:
Météo à : LZIB - Bratislava/M. R. Stefanik ( 24 km )
METAR: LZIB 201300Z 09003KT 050V150 9999 SCT033 BKN041 23/16 Q1011 NOSIG
TAF: TAF COR LZIB 201150Z 2012/2112 08008KT 9999 SCT030 TEMPO 2012/2018 FEW035TCU BKN040 PROB30 TEMPO 2012/2018 11015G25KT 5000 TSRA SCT035CB PROB30 TEMPO 2100/2106 9999 BKN010 TEMPO 2108/2112 11015G25KT PROB30 TEMPO 2110/2112 TSRA SCT030CB BKN035
Voir NOTAMs / SUP AIP / TFR affectant cet aéroport [VIEW]
Fréquences de communication: [VIEW]

Pistes:

Identifiant RWYQFULongueur (ft)Largeur (ft)SurfaceLDA (ft)
0338°206798GRASS2067
21218°206798GRASS2067

Coordonnées de l'aéroport

Adresse: Dunajská Streda Slovakia

Vue satellite de LZMASN